sensor_id;sensor_type;location;lat;lon;timestamp;pressure;altitude;pressure_sealevel;temperature;humidity
73518;BME280;61766;60.318;25.044;2023-05-01T00:00:42;101148.19;;;6.51;35.94
73518;BME280;61766;60.318;25.044;2023-05-01T00:03:07;101149.13;;;6.19;36.29
73518;BME280;61766;60.318;25.044;2023-05-01T00:05:32;101148.33;;;6.33;36.11
73518;BME280;61766;60.318;25.044;2023-05-01T00:07:57;101151.54;;;5.98;36.86
73518;BME280;61766;60.318;25.044;2023-05-01T00:10:23;101152.54;;;5.95;36.71
73518;BME280;61766;60.318;25.044;2023-05-01T00:12:48;101156.43;;;5.91;36.38
73518;BME280;61766;60.318;25.044;2023-05-01T00:15:13;101153.42;;;6.05;36.48
73518;BME280;61766;60.318;25.044;2023-05-01T00:17:38;101152.47;;;5.73;36.97
73518;BME280;61766;60.318;25.044;2023-05-01T00:20:04;101152.33;;;6.18;36.82
73518;BME280;61766;60.318;25.044;2023-05-01T00:22:29;101151.44;;;6.16;36.49
73518;BME280;61766;60.318;25.044;2023-05-01T00:24:54;101152.63;;;6.20;36.46
73518;BME280;61766;60.318;25.044;2023-05-01T00:27:19;101152.92;;;6.07;36.37
73518;BME280;61766;60.318;25.044;2023-05-01T00:29:44;101156.33;;;6.12;36.52
73518;BME280;61766;60.318;25.044;2023-05-01T00:32:09;101150.28;;;5.42;37.60
73518;BME280;61766;60.318;25.044;2023-05-01T00:34:35;101151.02;;;5.71;37.63
73518;BME280;61766;60.318;25.044;2023-05-01T00:37:00;101149.59;;;5.33;38.60
73518;BME280;61766;60.318;25.044;2023-05-01T00:39:25;101149.22;;;5.64;38.14
73518;BME280;61766;60.318;25.044;2023-05-01T00:41:50;101146.91;;;5.41;37.77
73518;BME280;61766;60.318;25.044;2023-05-01T00:44:16;101146.61;;;6.01;37.63
73518;BME280;61766;60.318;25.044;2023-05-01T00:46:41;101148.20;;;5.79;37.21
73518;BME280;61766;60.318;25.044;2023-05-01T00:49:06;101148.93;;;5.94;37.35
73518;BME280;61766;60.318;25.044;2023-05-01T00:51:32;101150.67;;;5.77;37.26
73518;BME280;61766;60.318;25.044;2023-05-01T00:53:58;101150.33;;;5.98;36.97
73518;BME280;61766;60.318;25.044;2023-05-01T00:56:22;101150.14;;;6.05;36.64
73518;BME280;61766;60.318;25.044;2023-05-01T00:58:49;101149.42;;;5.87;37.10
73518;BME280;61766;60.318;25.044;2023-05-01T01:01:12;101152.37;;;6.02;36.92
73518;BME280;61766;60.318;25.044;2023-05-01T01:03:37;101149.49;;;6.13;36.82
73518;BME280;61766;60.318;25.044;2023-05-01T01:06:08;101146.85;;;5.79;37.35
73518;BME280;61766;60.318;25.044;2023-05-01T01:08:33;101149.19;;;6.19;36.95
73518;BME280;61766;60.318;25.044;2023-05-01T01:10:58;101146.42;;;6.06;36.65
73518;BME280;61766;60.318;25.044;2023-05-01T01:13:27;101147.05;;;5.96;36.91
73518;BME280;61766;60.318;25.044;2023-05-01T01:15:49;101147.31;;;6.06;36.91
73518;BME280;61766;60.318;25.044;2023-05-01T01:18:15;101144.27;;;6.11;36.79
73518;BME280;61766;60.318;25.044;2023-05-01T01:20:40;101143.56;;;6.08;36.64
73518;BME280;61766;60.318;25.044;2023-05-01T01:25:49;101141.99;;;6.23;36.54
73518;BME280;61766;60.318;25.044;2023-05-01T01:28:06;101142.90;;;6.18;36.76
73518;BME280;61766;60.318;25.044;2023-05-01T01:30:29;101141.14;;;6.23;36.56
73518;BME280;61766;60.318;25.044;2023-05-01T01:35:11;101140.75;;;6.32;36.43
73518;BME280;61766;60.318;25.044;2023-05-01T01:37:36;101138.00;;;6.35;36.30
73518;BME280;61766;60.318;25.044;2023-05-01T01:40:02;101140.20;;;6.40;36.23
73518;BME280;61766;60.318;25.044;2023-05-01T01:42:28;101139.07;;;6.41;36.28
73518;BME280;61766;60.318;25.044;2023-05-01T01:44:51;101141.32;;;6.35;36.41
73518;BME280;61766;60.318;25.044;2023-05-01T01:47:13;101140.20;;;6.43;36.04
73518;BME280;61766;60.318;25.044;2023-05-01T01:49:41;101140.27;;;6.31;36.59
73518;BME280;61766;60.318;25.044;2023-05-01T01:52:04;101138.83;;;6.33;36.15
73518;BME280;61766;60.318;25.044;2023-05-01T01:54:31;101136.69;;;6.38;36.08
73518;BME280;61766;60.318;25.044;2023-05-01T01:56:54;101135.16;;;6.18;36.66
73518;BME280;61766;60.318;25.044;2023-05-01T01:59:20;101134.31;;;6.54;36.29
73518;BME280;61766;60.318;25.044;2023-05-01T02:01:44;101134.51;;;6.35;35.87
73518;BME280;61766;60.318;25.044;2023-05-01T02:04:10;101130.91;;;6.16;36.03
73518;BME280;61766;60.318;25.044;2023-05-01T02:06:35;101132.11;;;6.24;35.83
73518;BME280;61766;60.318;25.044;2023-05-01T02:09:01;101134.19;;;6.33;35.53
73518;BME280;61766;60.318;25.044;2023-05-01T02:11:25;101132.41;;;5.75;35.92
73518;BME280;61766;60.318;25.044;2023-05-01T02:13:50;101128.64;;;6.00;35.80
73518;BME280;61766;60.318;25.044;2023-05-01T02:16:15;101125.95;;;6.01;35.98
73518;BME280;61766;60.318;25.044;2023-05-01T02:18:40;101123.01;;;5.61;35.98
73518;BME280;61766;60.318;25.044;2023-05-01T02:21:06;101123.84;;;5.69;36.21
73518;BME280;61766;60.318;25.044;2023-05-01T02:23:31;101122.56;;;5.47;36.15
73518;BME280;61766;60.318;25.044;2023-05-01T02:25:56;101117.55;;;5.58;36.21
73518;BME280;61766;60.318;25.044;2023-05-01T02:28:23;101119.68;;;5.87;36.08
73518;BME280;61766;60.318;25.044;2023-05-01T02:30:46;101117.71;;;5.75;36.26
73518;BME280;61766;60.318;25.044;2023-05-01T02:33:12;101116.64;;;5.24;36.30
73518;BME280;61766;60.318;25.044;2023-05-01T02:35:38;101116.65;;;5.36;36.60
73518;BME280;61766;60.318;25.044;2023-05-01T02:38:02;101117.35;;;5.28;36.35
73518;BME280;61766;60.318;25.044;2023-05-01T02:40:27;101114.97;;;5.49;36.42
73518;BME280;61766;60.318;25.044;2023-05-01T02:42:52;101114.94;;;5.29;36.48
73518;BME280;61766;60.318;25.044;2023-05-01T02:45:19;101118.43;;;5.04;37.07
73518;BME280;61766;60.318;25.044;2023-05-01T02:47:43;101115.91;;;4.99;37.15
73518;BME280;61766;60.318;25.044;2023-05-01T02:50:09;101117.71;;;4.80;37.30
73518;BME280;61766;60.318;25.044;2023-05-01T02:52:34;101121.21;;;4.81;37.36
73518;BME280;61766;60.318;25.044;2023-05-01T02:54:59;101121.16;;;4.68;37.75
73518;BME280;61766;60.318;25.044;2023-05-01T02:57:24;101118.94;;;4.76;37.60
73518;BME280;61766;60.318;25.044;2023-05-01T02:59:49;101120.55;;;4.57;37.94
73518;BME280;61766;60.318;25.044;2023-05-01T03:02:14;101119.60;;;4.73;37.77
73518;BME280;61766;60.318;25.044;2023-05-01T03:04:40;101118.09;;;4.72;37.68
73518;BME280;61766;60.318;25.044;2023-05-01T03:07:05;101118.60;;;4.88;37.51
73518;BME280;61766;60.318;25.044;2023-05-01T03:09:30;101119.70;;;4.97;37.37
73518;BME280;61766;60.318;25.044;2023-05-01T03:11:55;101118.80;;;5.08;37.32
73518;BME280;61766;60.318;25.044;2023-05-01T03:14:20;101117.48;;;5.07;37.53
73518;BME280;61766;60.318;25.044;2023-05-01T03:16:46;101114.73;;;5.07;37.45
73518;BME280;61766;60.318;25.044;2023-05-01T03:19:11;101118.24;;;5.30;37.53
73518;BME280;61766;60.318;25.044;2023-05-01T03:21:36;101118.31;;;5.05;37.81
73518;BME280;61766;60.318;25.044;2023-05-01T03:24:02;101119.63;;;5.15;37.53
73518;BME280;61766;60.318;25.044;2023-05-01T03:26:27;101119.10;;;5.14;37.73
73518;BME280;61766;60.318;25.044;2023-05-01T03:28:52;101118.29;;;5.23;37.67
73518;BME280;61766;60.318;25.044;2023-05-01T03:31:17;101116.43;;;5.21;37.95
73518;BME280;61766;60.318;25.044;2023-05-01T03:33:43;101116.19;;;5.22;37.78
73518;BME280;61766;60.318;25.044;2023-05-01T03:36:08;101118.29;;;5.38;38.16
73518;BME280;61766;60.318;25.044;2023-05-01T03:38:33;101117.95;;;5.54;38.10
73518;BME280;61766;60.318;25.044;2023-05-01T03:40:59;101119.14;;;5.65;38.25
73518;BME280;61766;60.318;25.044;2023-05-01T03:43:24;101120.48;;;5.61;37.82
73518;BME280;61766;60.318;25.044;2023-05-01T03:45:49;101119.70;;;5.70;37.92
73518;BME280;61766;60.318;25.044;2023-05-01T03:48:14;101121.68;;;5.77;38.10
73518;BME280;61766;60.318;25.044;2023-05-01T03:50:39;101121.51;;;5.86;38.10
73518;BME280;61766;60.318;25.044;2023-05-01T03:53:04;101121.13;;;5.86;38.32
73518;BME280;61766;60.318;25.044;2023-05-01T03:55:30;101122.81;;;5.99;38.40
73518;BME280;61766;60.318;25.044;2023-05-01T03:57:55;101124.59;;;5.76;38.64
73518;BME280;61766;60.318;25.044;2023-05-01T04:00:21;101123.97;;;6.09;38.89
73518;BME280;61766;60.318;25.044;2023-05-01T04:02:45;101124.05;;;5.87;38.51
73518;BME280;61766;60.318;25.044;2023-05-01T04:05:11;101125.67;;;6.14;38.65
73518;BME280;61766;60.318;25.044;2023-05-01T04:07:36;101122.47;;;5.92;39.07
73518;BME280;61766;60.318;25.044;2023-05-01T04:10:01;101121.99;;;6.10;39.04
73518;BME280;61766;60.318;25.044;2023-05-01T04:12:26;101124.84;;;6.10;39.05
73518;BME280;61766;60.318;25.044;2023-05-01T04:14:51;101122.70;;;6.05;39.21
73518;BME280;61766;60.318;25.044;2023-05-01T04:17:16;101125.31;;;6.02;39.10
73518;BME280;61766;60.318;25.044;2023-05-01T04:19:42;101123.46;;;6.40;38.70
73518;BME280;61766;60.318;25.044;2023-05-01T04:22:07;101123.79;;;6.29;38.79
73518;BME280;61766;60.318;25.044;2023-05-01T04:24:32;101123.12;;;6.57;38.61
73518;BME280;61766;60.318;25.044;2023-05-01T04:26:57;101119.39;;;6.43;38.10
73518;BME280;61766;60.318;25.044;2023-05-01T04:29:22;101116.08;;;6.94;38.28
73518;BME280;61766;60.318;25.044;2023-05-01T04:31:48;101116.06;;;6.24;38.29
73518;BME280;61766;60.318;25.044;2023-05-01T04:34:13;101116.75;;;6.70;38.61
73518;BME280;61766;60.318;25.044;2023-05-01T04:36:38;101112.00;;;6.93;38.15
73518;BME280;61766;60.318;25.044;2023-05-01T04:39:03;101113.26;;;6.76;38.00
73518;BME280;61766;60.318;25.044;2023-05-01T04:41:29;101111.65;;;6.83;38.19
73518;BME280;61766;60.318;25.044;2023-05-01T04:43:54;101108.82;;;7.06;37.82
73518;BME280;61766;60.318;25.044;2023-05-01T04:46:19;101109.96;;;7.15;37.62
73518;BME280;61766;60.318;25.044;2023-05-01T04:48:44;101110.84;;;7.16;37.59
73518;BME280;61766;60.318;25.044;2023-05-01T04:51:10;101112.75;;;7.62;36.95
73518;BME280;61766;60.318;25.044;2023-05-01T04:53:35;101110.28;;;7.45;36.77
73518;BME280;61766;60.318;25.044;2023-05-01T04:56:00;101114.19;;;7.45;37.57
73518;BME280;61766;60.318;25.044;2023-05-01T04:58:25;101111.71;;;7.68;36.78
73518;BME280;61766;60.318;25.044;2023-05-01T05:00:50;101111.87;;;7.70;36.49
73518;BME280;61766;60.318;25.044;2023-05-01T05:03:15;101111.47;;;7.84;36.61
73518;BME280;61766;60.318;25.044;2023-05-01T05:05:40;101109.32;;;7.90;36.34
73518;BME280;61766;60.318;25.044;2023-05-01T05:08:06;101108.52;;;8.13;35.62
73518;BME280;61766;60.318;25.044;2023-05-01T05:10:31;101105.16;;;8.29;36.00
73518;BME280;61766;60.318;25.044;2023-05-01T05:12:56;101110.26;;;8.27;35.52
73518;BME280;61766;60.318;25.044;2023-05-01T05:15:21;101107.38;;;8.64;35.89
73518;BME280;61766;60.318;25.044;2023-05-01T05:17:46;101109.14;;;9.10;34.38
73518;BME280;61766;60.318;25.044;2023-05-01T05:20:11;101110.72;;;8.71;35.48
73518;BME280;61766;60.318;25.044;2023-05-01T05:22:36;101111.38;;;9.19;34.72
73518;BME280;61766;60.318;25.044;2023-05-01T05:25:02;101108.89;;;9.62;32.86
73518;BME280;61766;60.318;25.044;2023-05-01T05:27:26;101113.48;;;9.39;32.78
73518;BME280;61766;60.318;25.044;2023-05-01T05:29:52;101116.53;;;8.55;35.44
73518;BME280;61766;60.318;25.044;2023-05-01T05:32:17;101117.25;;;8.80;34.77
73518;BME280;61766;60.318;25.044;2023-05-01T05:34:42;101118.04;;;8.88;36.50
73518;BME280;61766;60.318;25.044;2023-05-01T05:37:07;101112.33;;;8.95;34.48
73518;BME280;61766;60.318;25.044;2023-05-01T05:39:32;101114.77;;;9.19;34.44
73518;BME280;61766;60.318;25.044;2023-05-01T05:41:57;101116.14;;;9.63;34.02
73518;BME280;61766;60.318;25.044;2023-05-01T05:44:22;101121.01;;;8.90;34.22
73518;BME280;61766;60.318;25.044;2023-05-01T05:46:47;101121.42;;;9.88;32.41
73518;BME280;61766;60.318;25.044;2023-05-01T05:49:12;101124.11;;;9.42;33.81
73518;BME280;61766;60.318;25.044;2023-05-01T05:51:37;101126.79;;;10.13;32.07
73518;BME280;61766;60.318;25.044;2023-05-01T05:54:03;101126.69;;;9.55;32.42
73518;BME280;61766;60.318;25.044;2023-05-01T05:56:28;101127.01;;;9.88;34.08
73518;BME280;61766;60.318;25.044;2023-05-01T05:58:53;101133.03;;;10.33;32.73
73518;BME280;61766;60.318;25.044;2023-05-01T06:01:18;101132.06;;;10.50;31.85
73518;BME280;61766;60.318;25.044;2023-05-01T06:03:43;101132.26;;;10.51;33.42
73518;BME280;61766;60.318;25.044;2023-05-01T06:06:08;101136.09;;;10.35;32.00
73518;BME280;61766;60.318;25.044;2023-05-01T06:08:33;101132.51;;;10.89;31.27
73518;BME280;61766;60.318;25.044;2023-05-01T06:10:58;101132.17;;;10.78;31.81
73518;BME280;61766;60.318;25.044;2023-05-01T06:13:23;101134.45;;;11.11;31.05
73518;BME280;61766;60.318;25.044;2023-05-01T06:15:48;101134.97;;;11.35;30.35
73518;BME280;61766;60.318;25.044;2023-05-01T06:18:13;101129.65;;;11.74;29.96
73518;BME280;61766;60.318;25.044;2023-05-01T06:20:38;101132.22;;;11.02;29.89
73518;BME280;61766;60.318;25.044;2023-05-01T06:23:03;101131.95;;;11.83;28.55
73518;BME280;61766;60.318;25.044;2023-05-01T06:25:28;101134.36;;;11.85;28.17
73518;BME280;61766;60.318;25.044;2023-05-01T06:27:53;101133.84;;;11.52;29.27
73518;BME280;61766;60.318;25.044;2023-05-01T06:30:19;101135.86;;;11.27;28.66
73518;BME280;61766;60.318;25.044;2023-05-01T06:32:44;101136.45;;;10.90;31.05
73518;BME280;61766;60.318;25.044;2023-05-01T06:35:09;101137.03;;;11.40;29.47
73518;BME280;61766;60.318;25.044;2023-05-01T06:37:33;101135.43;;;11.83;29.60
73518;BME280;61766;60.318;25.044;2023-05-01T06:39:59;101135.94;;;12.49;28.42
73518;BME280;61766;60.318;25.044;2023-05-01T06:42:25;101140.36;;;12.18;27.65
73518;BME280;61766;60.318;25.044;2023-05-01T06:44:51;101138.12;;;12.68;27.16
73518;BME280;61766;60.318;25.044;2023-05-01T06:47:17;101140.49;;;13.29;26.48
73518;BME280;61766;60.318;25.044;2023-05-01T06:49:43;101132.89;;;13.46;26.56
73518;BME280;61766;60.318;25.044;2023-05-01T06:52:08;101134.15;;;13.77;27.38
73518;BME280;61766;60.318;25.044;2023-05-01T06:54:34;101136.13;;;14.00;25.11
73518;BME280;61766;60.318;25.044;2023-05-01T06:57:00;101131.95;;;13.93;25.34
73518;BME280;61766;60.318;25.044;2023-05-01T06:59:26;101126.06;;;14.04;23.55
73518;BME280;61766;60.318;25.044;2023-05-01T07:01:52;101127.57;;;14.08;25.18
73518;BME280;61766;60.318;25.044;2023-05-01T07:04:18;101124.98;;;14.07;25.72
73518;BME280;61766;60.318;25.044;2023-05-01T07:06:43;101126.07;;;14.29;23.39
73518;BME280;61766;60.318;25.044;2023-05-01T07:09:09;101120.32;;;13.84;25.57
73518;BME280;61766;60.318;25.044;2023-05-01T07:11:35;101120.56;;;13.62;25.50
73518;BME280;61766;60.318;25.044;2023-05-01T07:14:01;101118.74;;;13.94;25.30
73518;BME280;61766;60.318;25.044;2023-05-01T07:16:27;101121.27;;;14.01;25.22
73518;BME280;61766;60.318;25.044;2023-05-01T07:18:53;101120.03;;;14.62;25.44
73518;BME280;61766;60.318;25.044;2023-05-01T07:21:18;101119.00;;;14.92;23.54
73518;BME280;61766;60.318;25.044;2023-05-01T07:23:44;101116.14;;;14.78;23.95
73518;BME280;61766;60.318;25.044;2023-05-01T07:26:10;101118.55;;;14.71;22.25
73518;BME280;61766;60.318;25.044;2023-05-01T07:28:36;101120.59;;;14.74;22.98
73518;BME280;61766;60.318;25.044;2023-05-01T07:31:02;101119.11;;;14.07;22.34
73518;BME280;61766;60.318;25.044;2023-05-01T07:33:27;101121.16;;;13.65;22.83
73518;BME280;61766;60.318;25.044;2023-05-01T07:35:53;101118.31;;;12.30;25.20
73518;BME280;61766;60.318;25.044;2023-05-01T07:38:19;101113.15;;;12.80;25.16
73518;BME280;61766;60.318;25.044;2023-05-01T07:40:45;101112.02;;;13.10;24.51
73518;BME280;61766;60.318;25.044;2023-05-01T07:43:11;101113.82;;;14.24;23.23
73518;BME280;61766;60.318;25.044;2023-05-01T07:45:37;101112.97;;;13.54;22.75
73518;BME280;61766;60.318;25.044;2023-05-01T07:48:03;101114.08;;;13.35;22.42
73518;BME280;61766;60.318;25.044;2023-05-01T07:50:28;101122.78;;;13.54;22.19
73518;BME280;61766;60.318;25.044;2023-05-01T07:52:54;101119.97;;;12.64;23.37
73518;BME280;61766;60.318;25.044;2023-05-01T07:55:20;101117.15;;;12.89;23.57
73518;BME280;61766;60.318;25.044;2023-05-01T07:57:46;101122.38;;;13.90;21.79
73518;BME280;61766;60.318;25.044;2023-05-01T08:00:13;101118.77;;;13.48;23.03
73518;BME280;61766;60.318;25.044;2023-05-01T08:02:37;101113.25;;;13.75;22.86
73518;BME280;61766;60.318;25.044;2023-05-01T08:05:04;101116.01;;;14.41;22.76
73518;BME280;61766;60.318;25.044;2023-05-01T08:07:29;101119.09;;;14.45;22.05
73518;BME280;61766;60.318;25.044;2023-05-01T08:09:55;101117.33;;;15.46;21.98
73518;BME280;61766;60.318;25.044;2023-05-01T08:12:20;101120.64;;;15.72;20.37
73518;BME280;61766;60.318;25.044;2023-05-01T08:14:47;101122.86;;;15.22;20.37
73518;BME280;61766;60.318;25.044;2023-05-01T08:17:12;101113.46;;;15.28;19.96
73518;BME280;61766;60.318;25.044;2023-05-01T08:19:38;101116.29;;;15.42;21.18
73518;BME280;61766;60.318;25.044;2023-05-01T08:22:04;101113.66;;;15.43;18.48
73518;BME280;61766;60.318;25.044;2023-05-01T08:24:29;101106.23;;;15.34;20.89
73518;BME280;61766;60.318;25.044;2023-05-01T08:26:55;101123.16;;;16.12;20.10
73518;BME280;61766;60.318;25.044;2023-05-01T08:29:21;101115.64;;;15.02;19.82
73518;BME280;61766;60.318;25.044;2023-05-01T08:31:47;101124.05;;;15.45;18.80
73518;BME280;61766;60.318;25.044;2023-05-01T08:34:13;101123.85;;;15.73;19.57
73518;BME280;61766;60.318;25.044;2023-05-01T08:36:39;101121.47;;;16.24;18.90
73518;BME280;61766;60.318;25.044;2023-05-01T08:39:04;101116.74;;;16.36;18.69
73518;BME280;61766;60.318;25.044;2023-05-01T08:41:31;101115.47;;;15.90;19.96
73518;BME280;61766;60.318;25.044;2023-05-01T08:43:56;101114.03;;;15.87;19.35
73518;BME280;61766;60.318;25.044;2023-05-01T08:46:25;101109.65;;;16.54;18.33
73518;BME280;61766;60.318;25.044;2023-05-01T08:48:48;101107.69;;;16.65;18.78
73518;BME280;61766;60.318;25.044;2023-05-01T08:51:15;101110.55;;;17.17;20.41
73518;BME280;61766;60.318;25.044;2023-05-01T08:53:40;101107.86;;;17.03;18.06
73518;BME280;61766;60.318;25.044;2023-05-01T08:56:05;101101.69;;;16.74;17.47
73518;BME280;61766;60.318;25.044;2023-05-01T08:58:32;101108.19;;;16.15;17.99
73518;BME280;61766;60.318;25.044;2023-05-01T09:00:57;101102.35;;;16.29;20.74
73518;BME280;61766;60.318;25.044;2023-05-01T09:03:23;101098.43;;;16.77;18.64
73518;BME280;61766;60.318;25.044;2023-05-01T09:05:48;101101.06;;;16.85;17.52
73518;BME280;61766;60.318;25.044;2023-05-01T09:08:14;101105.24;;;16.78;18.23
73518;BME280;61766;60.318;25.044;2023-05-01T09:10:43;101106.69;;;15.77;18.64
73518;BME280;61766;60.318;25.044;2023-05-01T09:13:05;101107.39;;;16.00;18.59
73518;BME280;61766;60.318;25.044;2023-05-01T09:15:31;101107.49;;;16.25;19.24
73518;BME280;61766;60.318;25.044;2023-05-01T09:17:59;101104.93;;;16.61;18.73
73518;BME280;61766;60.318;25.044;2023-05-01T09:20:23;101100.84;;;17.11;17.45
73518;BME280;61766;60.318;25.044;2023-05-01T09:22:49;101098.70;;;17.14;18.70
73518;BME280;61766;60.318;25.044;2023-05-01T09:25:14;101100.04;;;17.44;18.86
73518;BME280;61766;60.318;25.044;2023-05-01T09:27:40;101094.66;;;17.78;15.95
73518;BME280;61766;60.318;25.044;2023-05-01T09:30:07;101095.90;;;17.66;18.11
73518;BME280;61766;60.318;25.044;2023-05-01T09:32:31;101092.50;;;18.52;16.63
73518;BME280;61766;60.318;25.044;2023-05-01T09:35:08;101085.72;;;18.85;17.59
73518;BME280;61766;60.318;25.044;2023-05-01T09:37:26;101091.41;;;19.14;17.75
73518;BME280;61766;60.318;25.044;2023-05-01T09:39:49;101086.13;;;18.47;16.86
73518;BME280;61766;60.318;25.044;2023-05-01T09:42:22;101090.04;;;19.20;14.98
73518;BME280;61766;60.318;25.044;2023-05-01T09:44:40;101081.58;;;18.08;15.13
73518;BME280;61766;60.318;25.044;2023-05-01T09:47:06;101085.49;;;17.22;15.98
73518;BME280;61766;60.318;25.044;2023-05-01T09:49:43;101083.37;;;16.85;15.48
73518;BME280;61766;60.318;25.044;2023-05-01T09:54:23;101089.60;;;15.39;17.53
73518;BME280;61766;60.318;25.044;2023-05-01T09:56:49;101091.50;;;15.52;17.41
73518;BME280;61766;60.318;25.044;2023-05-01T09:59:17;101088.91;;;15.19;18.44
73518;BME280;61766;60.318;25.044;2023-05-01T10:01:42;101088.91;;;15.38;17.29
73518;BME280;61766;60.318;25.044;2023-05-01T10:04:07;101089.57;;;15.43;16.86
73518;BME280;61766;60.318;25.044;2023-05-01T10:06:32;101084.60;;;15.19;17.44
73518;BME280;61766;60.318;25.044;2023-05-01T10:08:58;101085.73;;;15.11;17.97
73518;BME280;61766;60.318;25.044;2023-05-01T10:11:25;101082.55;;;14.49;17.66
73518;BME280;61766;60.318;25.044;2023-05-01T10:14:04;101087.73;;;14.13;19.05
73518;BME280;61766;60.318;25.044;2023-05-01T10:16:26;101085.75;;;14.29;18.51
73518;BME280;61766;60.318;25.044;2023-05-01T10:18:42;101083.55;;;14.66;18.53
73518;BME280;61766;60.318;25.044;2023-05-01T10:21:07;101088.55;;;14.76;19.04
73518;BME280;61766;60.318;25.044;2023-05-01T10:23:33;101083.50;;;14.42;18.38
73518;BME280;61766;60.318;25.044;2023-05-01T10:26:00;101085.18;;;13.97;19.60
73518;BME280;61766;60.318;25.044;2023-05-01T10:28:25;101084.82;;;14.03;19.25
73518;BME280;61766;60.318;25.044;2023-05-01T10:30:51;101089.98;;;14.29;20.28
73518;BME280;61766;60.318;25.044;2023-05-01T10:33:17;101093.70;;;13.13;19.96
73518;BME280;61766;60.318;25.044;2023-05-01T10:35:46;101086.90;;;11.77;21.27
73518;BME280;61766;60.318;25.044;2023-05-01T10:38:12;101093.02;;;11.40;21.97
73518;BME280;61766;60.318;25.044;2023-05-01T10:40:44;101094.49;;;11.34;22.71
73518;BME280;61766;60.318;25.044;2023-05-01T10:43:14;101091.27;;;11.30;22.63
73518;BME280;61766;60.318;25.044;2023-05-01T10:45:28;101084.16;;;11.83;21.71
73518;BME280;61766;60.318;25.044;2023-05-01T10:47:49;101083.08;;;11.23;21.81
73518;BME280;61766;60.318;25.044;2023-05-01T10:50:14;101078.29;;;11.83;21.42
73518;BME280;61766;60.318;25.044;2023-05-01T11:00:10;101091.07;;;10.01;26.87
73518;BME280;61766;60.318;25.044;2023-05-01T11:02:21;101092.79;;;9.83;28.09
73518;BME280;61766;60.318;25.044;2023-05-01T11:04:47;101097.81;;;11.44;26.67
73518;BME280;61766;60.318;25.044;2023-05-01T11:07:14;101104.02;;;10.93;26.23
73518;BME280;61766;60.318;25.044;2023-05-01T11:09:36;101094.47;;;10.79;25.65
73518;BME280;61766;60.318;25.044;2023-05-01T11:11:58;101100.00;;;10.66;26.01
73518;BME280;61766;60.318;25.044;2023-05-01T11:14:23;101100.64;;;10.58;26.18
73518;BME280;61766;60.318;25.044;2023-05-01T11:16:49;101096.84;;;10.36;26.25
73518;BME280;61766;60.318;25.044;2023-05-01T11:21:39;101105.97;;;10.07;26.54
73518;BME280;61766;60.318;25.044;2023-05-01T11:24:04;101110.90;;;10.22;26.67
73518;BME280;61766;60.318;25.044;2023-05-01T11:26:30;101113.72;;;9.62;27.94
73518;BME280;61766;60.318;25.044;2023-05-01T11:28:58;101120.76;;;9.27;28.77
73518;BME280;61766;60.318;25.044;2023-05-01T11:31:19;101121.89;;;9.54;28.45
73518;BME280;61766;60.318;25.044;2023-05-01T11:33:44;101119.86;;;10.30;28.86
73518;BME280;61766;60.318;25.044;2023-05-01T11:36:09;101122.73;;;10.92;29.11
73518;BME280;61766;60.318;25.044;2023-05-01T11:38:34;101128.71;;;9.50;31.18
73518;BME280;61766;60.318;25.044;2023-05-01T11:41:01;101117.80;;;9.93;31.41
73518;BME280;61766;60.318;25.044;2023-05-01T11:43:24;101107.23;;;9.45;31.94
73518;BME280;61766;60.318;25.044;2023-05-01T11:45:51;101108.24;;;10.61;30.79
73518;BME280;61766;60.318;25.044;2023-05-01T11:48:14;101103.45;;;10.30;29.72
73518;BME280;61766;60.318;25.044;2023-05-01T11:50:39;101100.30;;;9.92;29.56
73518;BME280;61766;60.318;25.044;2023-05-01T11:53:10;101098.92;;;10.21;30.41
73518;BME280;61766;60.318;25.044;2023-05-01T11:55:31;101091.00;;;12.17;27.10
73518;BME280;61766;60.318;25.044;2023-05-01T11:57:54;101092.10;;;11.63;26.04
73518;BME280;61766;60.318;25.044;2023-05-01T12:00:27;101093.92;;;11.70;26.71
73518;BME280;61766;60.318;25.044;2023-05-01T12:02:55;101094.44;;;10.90;26.24
73518;BME280;61766;60.318;25.044;2023-05-01T12:05:15;101086.85;;;11.94;25.84
73518;BME280;61766;60.318;25.044;2023-05-01T12:07:37;101092.73;;;12.76;25.10
73518;BME280;61766;60.318;25.044;2023-05-01T12:10:03;101093.63;;;12.31;25.24
73518;BME280;61766;60.318;25.044;2023-05-01T12:12:29;101087.34;;;11.20;26.08
73518;BME280;61766;60.318;25.044;2023-05-01T12:14:54;101090.59;;;11.81;25.34
73518;BME280;61766;60.318;25.044;2023-05-01T12:17:19;101087.05;;;11.14;26.62
73518;BME280;61766;60.318;25.044;2023-05-01T12:19:46;101090.07;;;12.31;25.60
73518;BME280;61766;60.318;25.044;2023-05-01T12:22:09;101086.64;;;11.96;25.47
73518;BME280;61766;60.318;25.044;2023-05-01T12:24:35;101085.35;;;11.64;26.16
73518;BME280;61766;60.318;25.044;2023-05-01T12:27:00;101087.71;;;12.53;25.86
73518;BME280;61766;60.318;25.044;2023-05-01T12:29:24;101087.51;;;11.45;26.13
73518;BME280;61766;60.318;25.044;2023-05-01T12:31:49;101091.93;;;11.57;26.21
73518;BME280;61766;60.318;25.044;2023-05-01T12:34:14;101090.26;;;11.45;26.61
73518;BME280;61766;60.318;25.044;2023-05-01T12:36:39;101103.88;;;12.05;26.30
73518;BME280;61766;60.318;25.044;2023-05-01T12:39:06;101089.58;;;11.87;24.85
73518;BME280;61766;60.318;25.044;2023-05-01T12:41:37;101085.89;;;12.38;24.33
73518;BME280;61766;60.318;25.044;2023-05-01T12:43:54;101083.40;;;12.75;24.18
73518;BME280;61766;60.318;25.044;2023-05-01T12:46:19;101079.80;;;13.20;24.68
73518;BME280;61766;60.318;25.044;2023-05-01T12:48:44;101071.32;;;13.67;24.33
73518;BME280;61766;60.318;25.044;2023-05-01T12:51:17;101063.18;;;14.09;23.52